createdAt,value
2023-12-14T00:02:04.376Z,100305.59
2023-12-14T00:04:31.736Z,100313.41
2023-12-14T00:07:00.453Z,100312.13
2023-12-14T00:09:27.692Z,100303.69
2023-12-14T00:11:54.945Z,100306.22
2023-12-14T00:14:22.196Z,100310.34
2023-12-14T00:17:01.616Z,100312.53
2023-12-14T00:19:28.909Z,100311.34
2023-12-14T00:21:56.302Z,100320.06
2023-12-14T00:24:24.982Z,100329.50
2023-12-14T00:26:52.232Z,100335.69
2023-12-14T00:29:19.503Z,100336.44
2023-12-14T00:31:47.269Z,100341.94
2023-12-14T00:34:22.271Z,100341.91
2023-12-14T00:36:49.543Z,100348.84
2023-12-14T00:39:16.809Z,100351.34
2023-12-14T00:41:54.201Z,100354.09
2023-12-14T00:47:14.266Z,100368.19
2023-12-14T00:49:41.507Z,100369.03
2023-12-14T00:52:08.822Z,100369.25
2023-12-14T00:57:54.438Z,100382.03
2023-12-14T01:00:59.202Z,100375.94
2023-12-14T01:03:33.839Z,100374.63
2023-12-14T01:06:01.243Z,100377.25
2023-12-14T01:08:28.518Z,100384.53
2023-12-14T01:14:27.287Z,100398.72
2023-12-14T01:16:54.666Z,100408.66
2023-12-14T01:19:26.888Z,100410.06
2023-12-14T01:21:54.131Z,100415.41
2023-12-14T01:24:21.455Z,100420.06
2023-12-14T01:26:48.732Z,100418.28
2023-12-14T01:29:16.007Z,100427.69
2023-12-14T01:31:44.654Z,100433.19
2023-12-14T01:34:12.033Z,100436.78
2023-12-14T01:36:48.540Z,100445.88
2023-12-14T01:39:18.629Z,100449.06
2023-12-14T01:41:45.914Z,100450.25
2023-12-14T01:44:16.216Z,100449.63
2023-12-14T01:46:55.057Z,100450.63
2023-12-14T01:49:22.399Z,100453.59
2023-12-14T01:51:49.626Z,100454.31
2023-12-14T01:54:16.861Z,100462.91
2023-12-14T01:56:44.144Z,100460.50
2023-12-14T01:59:11.795Z,100467.78
2023-12-14T02:01:42.816Z,100466.19
2023-12-14T02:04:12.408Z,100469.09
2023-12-14T02:06:40.294Z,100473.13
2023-12-14T02:09:07.562Z,100480.94
2023-12-14T02:11:34.984Z,100476.34
2023-12-14T02:14:05.189Z,100479.91
2023-12-14T02:16:32.479Z,100480.06
2023-12-14T02:18:59.865Z,100479.97
2023-12-14T02:21:28.526Z,100479.38
2023-12-14T02:23:57.209Z,100479.03
2023-12-14T02:26:24.494Z,100476.84
2023-12-14T02:28:51.741Z,100482.78
2023-12-14T02:31:20.550Z,100484.81
2023-12-14T02:33:47.951Z,100491.03
2023-12-14T02:36:15.235Z,100492.19
2023-12-14T02:38:42.628Z,100490.63
2023-12-14T02:41:11.399Z,100505.06
2023-12-14T02:43:38.675Z,100505.91
2023-12-14T02:46:05.947Z,100498.50
2023-12-14T02:48:33.460Z,100500.28
2023-12-14T02:51:00.833Z,100499.19
2023-12-14T02:53:28.389Z,100507.28
2023-12-14T02:55:55.805Z,100507.91
2023-12-14T02:58:24.457Z,100509.19
2023-12-14T03:00:51.753Z,100511.19
2023-12-14T03:03:19.053Z,100520.19
2023-12-14T03:05:46.836Z,100522.50
2023-12-14T03:08:14.180Z,100516.75
2023-12-14T03:10:41.522Z,100530.03
2023-12-14T03:13:08.782Z,100537.00
2023-12-14T03:15:37.639Z,100540.97
2023-12-14T03:18:05.145Z,100540.34
2023-12-14T03:20:32.535Z,100544.72
2023-12-14T03:22:59.881Z,100552.50
2023-12-14T03:25:27.145Z,100552.91
2023-12-14T03:27:54.376Z,100555.53
2023-12-14T03:30:21.695Z,100553.38
2023-12-14T03:32:50.497Z,100557.28
2023-12-14T03:35:17.808Z,100568.84
2023-12-14T03:37:45.101Z,100560.56
2023-12-14T03:40:12.569Z,100565.50
2023-12-14T03:42:39.823Z,100570.13
2023-12-14T03:45:08.020Z,100564.25
2023-12-14T03:47:35.280Z,100569.75
2023-12-14T03:50:04.681Z,100573.06
2023-12-14T03:52:32.100Z,100583.97
2023-12-14T03:54:59.469Z,100583.69
2023-12-14T03:57:26.713Z,100586.84
2023-12-14T03:59:54.009Z,100595.44
2023-12-14T04:02:21.440Z,100597.44
2023-12-14T04:04:48.792Z,100601.72
2023-12-14T04:07:17.489Z,100597.66
2023-12-14T04:09:45.662Z,100600.78
2023-12-14T04:12:12.901Z,100606.88
2023-12-14T04:14:40.170Z,100607.81
2023-12-14T04:17:07.525Z,100615.69
2023-12-14T04:19:34.826Z,100618.72
2023-12-14T04:22:02.088Z,100618.81
2023-12-14T04:24:30.715Z,100620.19
2023-12-14T04:26:57.741Z,100626.28
2023-12-14T04:29:24.753Z,100629.31
2023-12-14T04:31:51.896Z,100636.44
2023-12-14T04:34:19.158Z,100636.03
2023-12-14T04:36:46.796Z,100636.22
2023-12-14T04:39:14.136Z,100641.69
2023-12-14T04:41:42.759Z,100646.50
2023-12-14T04:44:10.150Z,100651.97
2023-12-14T04:46:37.489Z,100663.69
2023-12-14T04:49:04.774Z,100659.50
2023-12-14T04:51:32.026Z,100675.53
2023-12-14T04:53:59.279Z,100673.34
2023-12-14T04:56:26.554Z,100676.78
2023-12-14T04:58:55.337Z,100677.22
2023-12-14T05:01:22.758Z,100678.06
2023-12-14T05:03:50.123Z,100677.53
2023-12-14T05:06:17.620Z,100689.72
2023-12-14T05:08:45.028Z,100686.56
2023-12-14T05:11:13.610Z,100680.16
2023-12-14T05:13:40.944Z,100683.41
2023-12-14T05:16:14.480Z,100690.75
2023-12-14T05:18:41.872Z,100690.97
2023-12-14T05:21:09.193Z,100698.50
2023-12-14T05:23:36.530Z,100702.09
2023-12-14T05:26:04.183Z,100709.09
2023-12-14T05:28:31.515Z,100711.63
2023-12-14T05:30:58.851Z,100712.25
2023-12-14T05:33:27.503Z,100715.19
2023-12-14T05:35:54.768Z,100719.25
2023-12-14T05:38:22.039Z,100724.94
2023-12-14T05:40:49.332Z,100739.63
2023-12-14T05:43:16.571Z,100737.84
2023-12-14T05:45:44.064Z,100747.19
2023-12-14T05:48:11.410Z,100765.09
2023-12-14T05:50:40.122Z,100767.41
2023-12-14T05:53:07.421Z,100773.50
2023-12-14T05:55:34.718Z,100777.06
2023-12-14T05:58:01.995Z,100772.53
2023-12-14T06:00:29.330Z,100774.41
2023-12-14T06:02:56.586Z,100776.81
2023-12-14T06:05:23.931Z,100783.25
2023-12-14T06:07:52.663Z,100784.81
2023-12-14T06:10:20.372Z,100787.94
2023-12-14T06:12:47.650Z,100797.59
2023-12-14T06:15:15.058Z,100785.97
2023-12-14T06:17:42.795Z,100786.59
2023-12-14T06:20:12.608Z,100790.47
2023-12-14T06:22:40.165Z,100796.22
2023-12-14T06:25:09.656Z,100803.78
2023-12-14T06:27:36.849Z,100808.69
2023-12-14T06:30:04.699Z,100811.75
2023-12-14T06:32:32.107Z,100815.31
2023-12-14T06:34:59.568Z,100823.91
2023-12-14T06:37:26.853Z,100820.66
2023-12-14T06:39:54.100Z,100818.22
2023-12-14T06:42:22.776Z,100816.97
2023-12-14T06:44:50.044Z,100819.91
2023-12-14T06:47:17.367Z,100820.94
2023-12-14T06:49:44.699Z,100825.84
2023-12-14T06:52:12.019Z,100833.25
2023-12-14T06:54:39.253Z,100839.00
2023-12-14T06:57:07.373Z,100842.91
2023-12-14T06:59:36.061Z,100847.16
2023-12-14T07:02:03.516Z,100854.81
2023-12-14T07:04:30.808Z,100861.53
2023-12-14T07:06:58.068Z,100865.44
2023-12-14T07:09:25.364Z,100869.41
2023-12-14T07:11:52.920Z,100876.53
2023-12-14T07:14:21.589Z,100871.34
2023-12-14T07:16:51.479Z,100882.69
2023-12-14T07:19:18.699Z,100888.59
2023-12-14T07:21:45.952Z,100894.97
2023-12-14T07:24:13.172Z,100898.34
2023-12-14T07:26:40.448Z,100906.09
2023-12-14T07:29:07.757Z,100907.13
2023-12-14T07:31:35.061Z,100906.34
2023-12-14T07:34:03.789Z,100922.28
2023-12-14T07:36:31.077Z,100929.41
2023-12-14T07:38:58.316Z,100934.34
2023-12-14T07:41:25.566Z,100936.69
2023-12-14T07:43:52.862Z,100941.75
2023-12-14T07:46:20.137Z,100941.94
2023-12-14T07:48:47.418Z,100949.78
2023-12-14T07:51:16.146Z,100958.34
2023-12-14T07:53:43.398Z,100962.38
2023-12-14T07:56:10.694Z,100967.72
2023-12-14T07:58:38.089Z,100964.81
2023-12-14T08:01:05.815Z,100972.47
2023-12-14T08:03:33.234Z,100965.94
2023-12-14T08:06:00.552Z,100978.41
2023-12-14T08:08:29.249Z,100982.06
2023-12-14T08:10:56.561Z,100982.78
2023-12-14T08:13:23.840Z,100990.66
2023-12-14T08:15:51.098Z,100995.41
2023-12-14T08:18:18.446Z,100989.44
2023-12-14T08:20:45.746Z,100995.31
2023-12-14T08:23:13.068Z,101001.56
2023-12-14T08:25:41.809Z,101007.66
2023-12-14T08:28:09.121Z,101004.09
2023-12-14T08:30:38.933Z,101006.16
2023-12-14T08:33:06.257Z,101004.09
2023-12-14T08:35:33.538Z,101017.69
2023-12-14T08:38:00.821Z,101019.84
2023-12-14T08:40:28.090Z,101032.66
2023-12-14T08:42:56.810Z,101035.91
2023-12-14T08:45:24.113Z,101042.69
2023-12-14T08:47:51.515Z,101051.50
2023-12-14T08:50:19.141Z,101053.69
2023-12-14T08:52:46.398Z,101053.59
2023-12-14T08:55:13.719Z,101055.38
2023-12-14T08:57:41.022Z,101069.78
2023-12-14T09:00:11.097Z,101071.84
2023-12-14T09:02:38.641Z,101074.09
2023-12-14T09:05:07.285Z,101076.16
2023-12-14T09:07:34.544Z,101083.13
2023-12-14T09:10:01.768Z,101090.91
2023-12-14T09:12:29.047Z,101086.94
2023-12-14T09:14:56.383Z,101096.25
2023-12-14T09:17:25.096Z,101101.81
2023-12-14T09:19:52.363Z,101094.97
2023-12-14T09:22:19.721Z,101099.38
2023-12-14T09:24:46.988Z,101096.19
2023-12-14T09:27:14.267Z,101105.13
2023-12-14T09:29:41.487Z,101103.94
2023-12-14T09:32:09.199Z,101107.16
2023-12-14T09:34:38.020Z,101115.50
2023-12-14T09:37:05.514Z,101124.91
2023-12-14T09:39:32.806Z,101124.03
2023-12-14T09:42:03.707Z,101121.63
2023-12-14T09:44:31.337Z,101129.50
2023-12-14T09:47:00.585Z,101134.00
2023-12-14T09:49:28.206Z,101139.44
2023-12-14T09:51:57.142Z,101144.06
2023-12-14T09:54:24.717Z,101145.25
2023-12-14T09:56:52.198Z,101147.13
2023-12-14T09:59:19.715Z,101152.31
2023-12-14T10:01:47.137Z,101153.44
2023-12-14T10:04:16.426Z,101155.19
2023-12-14T10:06:45.878Z,101157.84
2023-12-14T10:09:14.818Z,101169.34
2023-12-14T10:11:42.842Z,101164.84
2023-12-14T10:14:20.154Z,101158.38
2023-12-14T10:17:02.853Z,101166.09
2023-12-14T10:19:31.549Z,101170.75
2023-12-14T10:21:58.946Z,101172.06
2023-12-14T10:24:27.561Z,101174.31
2023-12-14T10:26:54.847Z,101177.94
2023-12-14T10:29:22.157Z,101174.00
2023-12-14T10:31:49.848Z,101181.91
2023-12-14T10:34:17.274Z,101184.03
2023-12-14T10:36:47.190Z,101186.41
2023-12-14T10:39:15.911Z,101189.28
2023-12-14T10:41:49.442Z,101186.66
2023-12-14T10:44:33.038Z,101191.94
2023-12-14T10:47:08.403Z,101196.50
2023-12-14T10:49:36.084Z,101201.09
2023-12-14T10:52:05.236Z,101198.38
2023-12-14T10:54:35.996Z,101204.81
2023-12-14T10:57:05.001Z,101210.28
2023-12-14T10:59:32.256Z,101211.69
2023-12-14T11:01:59.634Z,101221.44
2023-12-14T11:04:27.551Z,101222.91
2023-12-14T11:06:55.367Z,101225.16
2023-12-14T11:09:24.122Z,101226.84
2023-12-14T11:11:57.663Z,101224.88
2023-12-14T11:14:27.149Z,101240.47
2023-12-14T11:16:55.961Z,101233.59
2023-12-14T11:19:31.126Z,101241.31
2023-12-14T11:22:12.505Z,101249.06
2023-12-14T11:24:43.015Z,101243.59
2023-12-14T11:27:10.705Z,101247.56
2023-12-14T11:29:39.842Z,101253.00
2023-12-14T11:32:07.521Z,101246.78
2023-12-14T11:34:34.772Z,101241.34
2023-12-14T11:37:02.100Z,101241.34
2023-12-14T11:39:31.528Z,101243.50
2023-12-14T11:42:00.315Z,101238.28
2023-12-14T11:44:27.647Z,101242.78
2023-12-14T11:46:56.352Z,101250.28
2023-12-14T11:49:25.743Z,101251.97
2023-12-14T11:51:53.188Z,101260.94
2023-12-14T11:54:20.449Z,101251.00
2023-12-14T11:56:48.253Z,101253.47
2023-12-14T11:59:16.263Z,101261.56
2023-12-14T12:01:56.711Z,101271.25
2023-12-14T12:04:24.142Z,101269.13
2023-12-14T12:07:00.037Z,101272.78
2023-12-14T12:09:38.170Z,101281.13
2023-12-14T12:12:08.781Z,101284.84
2023-12-14T12:14:36.902Z,101286.91
2023-12-14T12:17:06.692Z,101293.63
2023-12-14T12:19:34.784Z,101299.56
2023-12-14T12:22:02.133Z,101308.38
2023-12-14T12:24:31.155Z,101306.03
2023-12-14T12:26:59.008Z,101309.94
2023-12-14T12:29:26.219Z,101309.03
2023-12-14T12:31:53.482Z,101310.47
2023-12-14T12:34:22.132Z,101310.53
2023-12-14T12:36:49.479Z,101309.94
2023-12-14T12:39:16.692Z,101315.50
2023-12-14T12:41:44.196Z,101319.91
2023-12-14T12:44:11.473Z,101324.38
2023-12-14T12:46:39.277Z,101322.53
2023-12-14T12:49:06.804Z,101324.97
2023-12-14T12:51:35.454Z,101329.63
2023-12-14T12:54:10.143Z,101337.28
2023-12-14T12:56:40.570Z,101347.00
2023-12-14T12:59:10.010Z,101355.81
2023-12-14T13:01:37.684Z,101362.56
2023-12-14T13:04:04.964Z,101368.16
2023-12-14T13:06:32.162Z,101364.78
2023-12-14T13:09:00.755Z,101378.47
2023-12-14T13:11:27.822Z,101369.84
2023-12-14T13:13:54.833Z,101376.72
2023-12-14T13:16:21.992Z,101374.16
2023-12-14T13:18:49.326Z,101369.69
2023-12-14T13:21:16.589Z,101372.13
2023-12-14T13:23:43.838Z,101376.16
2023-12-14T13:26:12.521Z,101379.31
2023-12-14T13:28:39.863Z,101385.06
2023-12-14T13:31:07.133Z,101381.59
2023-12-14T13:33:34.505Z,101386.09
2023-12-14T13:36:01.723Z,101392.09
2023-12-14T13:38:29.046Z,101389.09
2023-12-14T13:40:56.430Z,101390.56
2023-12-14T13:43:25.033Z,101402.53
2023-12-14T13:45:58.259Z,101413.06
2023-12-14T13:48:32.966Z,101418.41
2023-12-14T13:51:00.222Z,101421.88
2023-12-14T13:53:27.474Z,101422.38
2023-12-14T13:55:54.784Z,101426.94
2023-12-14T13:58:22.016Z,101432.19
2023-12-14T14:00:50.575Z,101440.81
2023-12-14T14:03:17.812Z,101447.50
2023-12-14T14:05:45.197Z,101455.44
2023-12-14T14:08:17.585Z,101462.31
2023-12-14T14:10:45.423Z,101475.34
2023-12-14T14:13:12.752Z,101480.75
2023-12-14T14:15:39.964Z,101497.34
2023-12-14T14:18:08.687Z,101497.34
2023-12-14T14:20:35.965Z,101499.97
2023-12-14T14:23:03.274Z,101507.81
2023-12-14T14:25:30.531Z,101508.97
2023-12-14T14:27:57.752Z,101507.28
2023-12-14T14:30:25.071Z,101515.34
2023-12-14T14:32:52.515Z,101514.94
2023-12-14T14:35:21.166Z,101512.41
2023-12-14T14:37:48.635Z,101519.34
2023-12-14T14:40:16.224Z,101513.16
2023-12-14T14:42:44.116Z,101522.88
2023-12-14T14:45:12.148Z,101535.44
2023-12-14T14:47:40.969Z,101535.75
2023-12-14T14:50:12.375Z,101544.78
2023-12-14T14:52:41.456Z,101546.78
2023-12-14T14:55:09.272Z,101551.72
2023-12-14T14:57:36.498Z,101548.53
2023-12-14T15:00:04.504Z,101558.84
2023-12-14T15:02:31.743Z,101559.59
2023-12-14T15:04:58.995Z,101560.28
2023-12-14T15:07:26.314Z,101575.16
2023-12-14T15:09:54.875Z,101575.94
2023-12-14T15:12:22.119Z,101576.88
2023-12-14T15:14:49.374Z,101582.19
2023-12-14T15:17:16.623Z,101588.03
2023-12-14T15:19:43.917Z,101588.28
2023-12-14T15:22:11.158Z,101593.59
2023-12-14T15:24:38.361Z,101592.28
2023-12-14T15:27:09.302Z,101598.50
2023-12-14T15:29:37.139Z,101597.50
2023-12-14T15:32:04.878Z,101593.88
2023-12-14T15:34:32.128Z,101599.53
2023-12-14T15:36:59.352Z,101603.00
2023-12-14T15:39:26.600Z,101604.44
2023-12-14T15:41:53.845Z,101602.75
2023-12-14T15:44:22.769Z,101604.59
2023-12-14T15:46:50.108Z,101622.22
2023-12-14T15:49:17.342Z,101619.44
2023-12-14T15:51:44.585Z,101619.25
2023-12-14T15:54:11.784Z,101625.84
2023-12-14T15:56:38.972Z,101625.75
2023-12-14T15:59:06.284Z,101629.16
2023-12-14T16:01:34.986Z,101638.63
2023-12-14T16:04:02.200Z,101645.19
2023-12-14T16:06:29.456Z,101653.31
2023-12-14T16:08:56.692Z,101650.06
2023-12-14T16:11:23.986Z,101657.84
2023-12-14T16:13:51.286Z,101670.44
2023-12-14T16:16:18.504Z,101687.97
2023-12-14T16:18:47.119Z,101677.28
2023-12-14T16:21:14.523Z,101681.53
2023-12-14T16:23:41.895Z,101688.31
2023-12-14T16:26:12.544Z,101687.78
2023-12-14T16:28:39.830Z,101685.53
2023-12-14T16:31:08.019Z,101692.00
2023-12-14T16:33:39.136Z,101696.25
2023-12-14T16:36:12.613Z,101701.03
2023-12-14T16:38:39.955Z,101704.72
2023-12-14T16:41:07.326Z,101706.13
2023-12-14T16:43:34.625Z,101718.44
2023-12-14T16:46:01.844Z,101714.44
2023-12-14T16:48:29.102Z,101714.91
2023-12-14T16:50:56.477Z,101721.56
2023-12-14T16:53:25.074Z,101728.50
2023-12-14T16:55:56.239Z,101733.28
2023-12-14T16:58:23.535Z,101733.75
2023-12-14T17:00:50.919Z,101732.56
2023-12-14T17:03:18.265Z,101739.88
2023-12-14T17:05:45.535Z,101749.69
2023-12-14T17:08:12.903Z,101755.06
2023-12-14T17:10:41.671Z,101751.78
2023-12-14T17:13:08.893Z,101761.69
2023-12-14T17:15:36.135Z,101762.34
2023-12-14T17:18:03.429Z,101766.34
2023-12-14T17:20:30.780Z,101772.56
2023-12-14T17:22:58.023Z,101771.75
2023-12-14T17:25:25.310Z,101777.53
2023-12-14T17:27:53.876Z,101781.78
2023-12-14T17:30:20.920Z,101787.00
2023-12-14T17:32:47.950Z,101790.25
2023-12-14T17:35:14.991Z,101795.50
2023-12-14T17:37:42.220Z,101790.88
2023-12-14T17:40:10.174Z,101794.19
2023-12-14T17:42:37.604Z,101795.03
2023-12-14T17:45:07.791Z,101800.88
2023-12-14T17:47:35.226Z,101807.69
2023-12-14T17:50:02.963Z,101812.75
2023-12-14T17:52:30.229Z,101819.06
2023-12-14T17:54:57.476Z,101822.78
2023-12-14T17:57:24.667Z,101820.69
2023-12-14T17:59:51.899Z,101823.56
2023-12-14T18:02:20.572Z,101829.38
2023-12-14T18:04:47.857Z,101833.09
2023-12-14T18:07:15.096Z,101827.97
2023-12-14T18:09:42.328Z,101828.13
2023-12-14T18:12:09.517Z,101835.03
2023-12-14T18:14:36.725Z,101849.56
2023-12-14T18:17:04.443Z,101850.03
2023-12-14T18:19:33.150Z,101857.13
2023-12-14T18:22:00.423Z,101863.66
2023-12-14T18:24:27.671Z,101860.31
2023-12-14T18:26:54.907Z,101865.31
2023-12-14T18:29:22.178Z,101864.91
2023-12-14T18:31:49.488Z,101876.34
2023-12-14T18:34:16.735Z,101880.47
2023-12-14T18:36:45.329Z,101885.16
2023-12-14T18:39:12.409Z,101887.94
2023-12-14T18:41:39.514Z,101891.25
2023-12-14T18:44:06.806Z,101910.59
2023-12-14T18:46:34.135Z,101905.34
2023-12-14T18:49:01.417Z,101909.81
2023-12-14T18:51:28.702Z,101904.91
2023-12-14T18:53:57.360Z,101903.66
2023-12-14T18:56:24.584Z,101908.94
2023-12-14T18:58:51.867Z,101924.50
2023-12-14T19:01:19.137Z,101922.47
2023-12-14T19:03:46.407Z,101932.34
2023-12-14T19:06:13.810Z,101940.34
2023-12-14T19:08:41.480Z,101952.00
2023-12-14T19:11:17.058Z,101966.09
2023-12-14T19:13:44.728Z,101965.22
2023-12-14T19:16:12.396Z,101963.13
2023-12-14T19:18:39.753Z,101966.38
2023-12-14T19:21:07.325Z,101970.34
2023-12-14T19:23:34.534Z,101974.53
2023-12-14T19:26:01.786Z,101976.63
2023-12-14T19:28:30.380Z,101974.16
2023-12-14T19:30:57.685Z,101984.63
2023-12-14T19:33:25.084Z,101987.03
2023-12-14T19:35:52.411Z,101989.59
2023-12-14T19:38:19.643Z,101985.78
2023-12-14T19:40:46.883Z,101985.28
2023-12-14T19:43:14.122Z,101990.75
2023-12-14T19:45:42.615Z,101991.16
2023-12-14T19:48:09.785Z,101998.38
2023-12-14T19:50:36.808Z,101991.69
2023-12-14T19:53:03.811Z,102001.19
2023-12-14T19:55:30.744Z,102006.50
2023-12-14T19:57:57.876Z,102014.28
2023-12-14T20:00:25.082Z,102010.09
2023-12-14T20:02:53.698Z,102017.50
2023-12-14T20:05:21.162Z,102018.25
2023-12-14T20:07:48.474Z,102023.50
2023-12-14T20:10:15.896Z,102033.66
2023-12-14T20:12:43.128Z,102039.56
2023-12-14T20:15:12.651Z,102040.09
2023-12-14T20:17:40.232Z,102044.69
2023-12-14T20:20:10.232Z,102046.69
2023-12-14T20:22:37.515Z,102054.56
2023-12-14T20:25:06.179Z,102059.66
2023-12-14T20:27:33.844Z,102059.97
2023-12-14T20:30:01.346Z,102071.41
2023-12-14T20:32:28.709Z,102073.81
2023-12-14T20:34:56.029Z,102070.81
2023-12-14T20:37:24.597Z,102072.84
2023-12-14T20:39:53.014Z,102067.22
2023-12-14T20:42:20.315Z,102066.91
2023-12-14T20:44:47.518Z,102071.56
2023-12-14T20:47:14.824Z,102077.63
2023-12-14T20:49:42.123Z,102072.41
2023-12-14T20:52:09.370Z,102074.66
2023-12-14T20:54:37.962Z,102076.66
2023-12-14T20:57:05.197Z,102078.72
2023-12-14T20:59:32.389Z,102088.56
2023-12-14T21:01:59.647Z,102099.31
2023-12-14T21:04:26.907Z,102101.28
2023-12-14T21:06:54.134Z,102110.91
2023-12-14T21:09:21.332Z,102105.78
2023-12-14T21:11:49.881Z,102105.91
2023-12-14T21:14:17.132Z,102107.13
2023-12-14T21:16:44.612Z,102111.81
2023-12-14T21:19:11.890Z,102116.56
2023-12-14T21:21:39.133Z,102117.72
2023-12-14T21:24:06.503Z,102120.53
2023-12-14T21:26:33.751Z,102129.22
2023-12-14T21:29:02.385Z,102120.53
2023-12-14T21:31:29.397Z,102122.94
2023-12-14T21:33:56.586Z,102129.59
2023-12-14T21:36:23.855Z,102130.31
2023-12-14T21:38:51.092Z,102138.84
2023-12-14T21:41:18.385Z,102142.63
2023-12-14T21:43:45.619Z,102146.25
2023-12-14T21:46:14.224Z,102139.09
2023-12-14T21:48:43.509Z,102144.88
2023-12-14T21:51:12.209Z,102148.41
2023-12-14T21:53:39.428Z,102146.22
2023-12-14T21:56:07.539Z,102152.94
2023-12-14T21:58:34.764Z,102143.50
2023-12-14T22:01:02.082Z,102146.13
2023-12-14T22:03:30.787Z,102151.41
2023-12-14T22:05:58.165Z,102147.88
2023-12-14T22:08:25.456Z,102152.53
2023-12-14T22:10:52.734Z,102152.28
2023-12-14T22:13:19.947Z,102154.81
2023-12-14T22:15:47.165Z,102155.41
2023-12-14T22:18:14.480Z,102153.16
2023-12-14T22:20:43.124Z,102166.50
2023-12-14T22:23:10.135Z,102165.66
2023-12-14T22:25:37.250Z,102182.56
2023-12-14T22:28:04.705Z,102171.22
2023-12-14T22:30:31.942Z,102184.25
2023-12-14T22:32:59.320Z,102173.44
2023-12-14T22:35:26.751Z,102173.88
2023-12-14T22:37:55.544Z,102176.69
2023-12-14T22:40:22.785Z,102178.16
2023-12-14T22:42:50.008Z,102182.22
2023-12-14T22:45:17.240Z,102172.50
2023-12-14T22:47:44.601Z,102178.56
2023-12-14T22:50:12.108Z,102189.09
2023-12-14T22:52:39.388Z,102180.69
2023-12-14T22:55:08.725Z,102188.47
2023-12-14T22:57:36.158Z,102197.72
2023-12-14T23:00:04.183Z,102192.75
2023-12-14T23:02:31.511Z,102203.19
2023-12-14T23:04:58.800Z,102205.97
2023-12-14T23:07:26.062Z,102212.13
2023-12-14T23:09:53.316Z,102209.44
2023-12-14T23:12:22.126Z,102209.25
2023-12-14T23:14:49.428Z,102216.25
2023-12-14T23:17:16.710Z,102217.78
2023-12-14T23:19:43.960Z,102223.94
2023-12-14T23:22:11.259Z,102225.78
2023-12-14T23:24:38.580Z,102233.19
2023-12-14T23:27:05.822Z,102235.94
2023-12-14T23:29:34.428Z,102240.59
2023-12-14T23:32:01.532Z,102250.03
2023-12-14T23:34:28.516Z,102258.69
2023-12-14T23:36:55.687Z,102265.13
2023-12-14T23:39:22.985Z,102264.38
2023-12-14T23:41:50.247Z,102273.81
2023-12-14T23:44:17.574Z,102270.19
2023-12-14T23:46:46.223Z,102271.88
2023-12-14T23:49:13.311Z,102271.78
2023-12-14T23:51:40.527Z,102279.41
2023-12-14T23:54:07.787Z,102285.16
2023-12-14T23:56:35.059Z,102283.47
2023-12-14T23:59:02.359Z,102292.41
